• Join FlightAware (Why Join?)
  • Login
  • US Flag 
09:30PM EDT


 

Airport Tracker/Info


-or-


 

Live Flight TrackerFlight Track Log ✈ SWA1761 ✈ 23-Jun-2013 ✈ KRNO - KLAS

Flight Track Log - Related Links

Times and Time Zones

All times are in EDT time to prevent confusion due to time zone crossing. See the SWA1761 flight status page for this flight to view local times or setup timezone preferences in your user account.

Time Position Orientation Groundspeed Altitude Reporting Facility
EDT Latitude Longitude Course Direction KTS MPH feet Rate Location/Type
04:00PM 39.5060 -119.7720 North 23 26  Level FlightAware
04:01PM 39.5110 -119.7710 North 25 29 1,920 Level FlightAware
04:01PM 39.5140 -119.7710 360° North 17 20 2,700 Level FlightAware
04:02PM 39.5000 -119.7690 174° South 150 173 3,540 Level FlightAware
04:03PM 39.4830 -119.7690 180° South 175 201 5,100 7,800 Climbing FlightAware
04:03PM 39.4600 -119.7690 180° South 201 231 6,000 1,860 Climbing FlightAware
04:03PM 39.4360 -119.7690 180° South 233 268 6,700 2,280 Climbing FlightAware
04:04PM 39.4140 -119.7680 178° South 243 280 7,700 2,760 Climbing FlightAware
04:04PM 39.3820 -119.7680 180° South 260 299 8,900 2,580 Climbing FlightAware
04:05PM 39.3520 -119.7520 158° South 287 330 10,100 2,100 Climbing FlightAware
04:05PM 39.3160 -119.6960 130° Southeast 328 377 11,300 2,580 Climbing FlightAware
04:06PM 39.2650 -119.6280 134° Southeast 343 395 13,800 3,300 Climbing FlightAware
04:07PM 39.2220 -119.5650 131° Southeast 347 399 16,100 3,120 Climbing FlightAware
04:08PM 39.1750 -119.4980 132° Southeast 353 406 18,200 2,460 Climbing FlightAware
04:08PM 39.1350 -119.4410 132° Southeast 359 413 19,400 1,800 Climbing FlightAware
04:09PM 39.0780 -119.3730 137° Southeast 375 432 20,700 1,800 Climbing FlightAware
04:10PM 39.0230 -119.3070 137° Southeast 391 450 22,100 1,800 Climbing FlightAware
04:10PM 38.9750 -119.2490 137° Southeast 407 468 23,100 900 Climbing FlightAware
04:11PM 38.9020 -119.1600 136° Southeast 413 475 23,600 240 Climbing FlightAware
04:12PM 38.8300 -119.0710 136° Southeast 413 475 23,600 2,160 Level FlightAware
04:13PM 38.7410 -118.9700 138° Southeast 446 513 27,300 2,880 Climbing FlightAware
04:14PM 38.6870 -118.9060 137° Southeast 446 513 27,600 180 Climbing FlightAware
04:14PM 38.6410 -118.8500 136° Southeast 446 513 27,600  Level FlightAware
04:15PM 38.5770 -118.7740 137° Southeast 446 513 27,600  Level FlightAware
04:16PM 38.5310 -118.7190 137° Southeast 446 513 27,600  Level FlightAware
04:16PM 38.4680 -118.6440 137° Southeast 446 513 27,600  Level FlightAware
04:17PM 38.4220 -118.5890 137° Southeast 446 513 27,600 2,160 Level FlightAware
04:18PM 38.2900 -118.4375 137° Southeast 432 497 31,000 1,680 Climbing Oakland Center
04:19PM 38.2006 -118.3353 138° Southeast 432 497 31,000  Level Oakland Center
04:20PM 38.1128 -118.2322 137° Southeast 430 495 31,000  Level Oakland Center
04:21PM 38.0142 -118.1175 137° Southeast 435 501 31,000  Level Oakland Center
04:22PM 37.9244 -118.0139 138° Southeast 439 505 31,000  Level Oakland Center
04:23PM 37.8344 -117.9092 137° Southeast 441 507 31,000  Level Oakland Center
04:29PM 37.3110 -117.3170 137° Southeast 445 512 31,000  Level FlightAware
04:30PM 37.2370 -117.2330 138° Southeast 444 511 31,000  Level FlightAware
04:30PM 37.1660 -117.1540 138° Southeast 444 511 31,000  Level FlightAware
04:31PM 37.0960 -117.0750 138° Southeast 445 512 31,000  Level FlightAware
04:32PM 37.0520 -117.0250 138° Southeast 445 512 31,000  Level FlightAware
04:32PM 37.0010 -116.9680 138° Southeast 445 512 31,000  Level FlightAware
04:33PM 36.9370 -116.8960 138° Southeast 445 512 31,000  Level FlightAware
04:34PM 36.8910 -116.8430 137° Southeast 445 512 31,000  Level FlightAware
04:35PM 36.8070 -116.7500 138° Southeast 445 512 31,000  Level FlightAware
04:35PM 36.7600 -116.6970 138° Southeast 445 512 31,000  Level FlightAware
04:36PM 36.6990 -116.6290 138° Southeast 445 512 31,000 -2,700 Level FlightAware
04:39PM 36.4330 -116.2260 129° Southeast 392 451 21,500 -3,180 Descending FlightAware
04:40PM 36.3850 -116.1580 131° Southeast 382 440 20,100 -1,980 Descending FlightAware
04:40PM 36.3370 -116.0910 132° Southeast 374 430 18,800 -1,920 Descending FlightAware
04:41PM 36.2860 -116.0190 131° Southeast 364 419 17,400 -1,500 Descending FlightAware
04:42PM 36.2280 -115.9380 132° Southeast 344 396 16,400 -720 Descending FlightAware
04:43PM 36.1910 -115.8690 124° Southeast 331 381 16,300 -120 Descending FlightAware
04:43PM 36.1660 -115.7930 112° Southeast 328 377 16,300 -420 Level FlightAware
04:44PM 36.1420 -115.7190 112° Southeast 320 368 15,700 -1,140 Descending FlightAware
04:45PM 36.1220 -115.6550 111° Southeast 314 361 14,800 -1,440 Descending FlightAware
04:46PM 36.0970 -115.5790 112° Southeast 313 360 13,700 -1,500 Descending FlightAware
04:46PM 36.0760 -115.5140 112° Southeast 306 352 12,700 -1,500 Descending FlightAware
04:47PM 36.0540 -115.4450 112° Southeast 299 344 11,700 -1,020 Descending FlightAware
04:48PM 36.0330 -115.3770 111° Southeast 282 325 11,300 -720 Descending FlightAware
04:48PM 36.0260 -115.3120 98° East 270 311 10,700 -1,020 Descending FlightAware
04:49PM 36.0230 -115.2570 94° East 277 319 10,000 -1,260 Descending FlightAware
04:49PM 36.0190 -115.2070 96° East 269 310 9,300 -1,260 Descending FlightAware
04:50PM 36.0150 -115.1600 96° East 263 303 8,800 -900 Descending FlightAware
04:50PM 36.0140 -115.1430 94° East 260 299 8,700 -720 Descending FlightAware
04:51PM 36.0120 -115.1080 94° East 250 288 8,400 -480 Descending FlightAware
04:51PM 36.0090 -115.0640 95° East 233 268 8,300 -360 Descending FlightAware
04:52PM 36.0080 -115.0340 92° East 217 250 8,100 -900 Descending FlightAware
04:52PM 36.0050 -114.9960 96° East 204 235 7,500 -1,020 Descending FlightAware
04:53PM 36.0140 -114.9650 70° East 210 242 7,100 -840 Descending FlightAware
04:53PM 36.0200 -114.9600 34° Northeast 208 239 7,000 -1,500 Descending FlightAware
04:53PM 36.0400 -114.9560 North 207 238 6,400 -1,560 Descending FlightAware
04:53PM 36.0620 -114.9600 352° North 189 217 5,800 -1,560 Descending FlightAware
04:54PM 36.0710 -114.9680 324° Northwest 182 209 5,400 -1,980 Descending FlightAware
04:54PM 36.0790 -114.9840 302° West 171 197 4,800 -1,980 Descending FlightAware
04:54PM 36.0800 -114.9960 276° West 169 194 4,400 -1,740 Descending FlightAware
04:54PM 36.0780 -115.0110 261° West 167 192 4,000 -1,200 Descending FlightAware
04:55PM 36.0750 -115.0350 261° West 170 196 3,600 -900 Descending FlightAware
04:55PM 36.0730 -115.0640 265° West 175 201 3,200 -840 Descending FlightAware
04:56PM 36.0740 -115.1070 272° West 175 201 2,600 -840 Descending FlightAware
04:56PM 36.0740 -115.1300 270° West 158 182 2,300 -780 Descending FlightAware
04:57PM 36.0740 -115.1450 270° West 55 63 -5,340 Descending FlightAware
04:57PM 36.0740 -115.1520 270° West 38 44  Level FlightAware
05:05PM 36.0801 -115.1523 270° West  Level Estimated